Aérodrome :
LOGIN :

S'inscrire | Disclaimer

   EN    FR    IT 

 










Légende :    VFR   VFR Marginal   IFR   IFR Intensif   IFR Très Intensif
Visi : 
Plafond : 
>= 8 km
>= 3000ft
5 à 8 km
1000 à 3000 ft
1500m à 5 km
500 à 1000 ft
800 à 1500m
200 à 500 ft
< 800m
< 200 ft
Symboles :   Orages  Brouillard  Fortes neiges  Fortes précipitations  Vent > 20 kt
SIGMETs :   Divers  Orages  Givrage  Turbulence  Onde Orograph.  Cendres Volcan.







- Altitude de l'aérodrome : 2059 ft
- Code IATA : KZI


LGKZ - Filippos

DERNIER METAR :
  • 222120Z AUTO 02004KT //// // ////// 21/10 Q1022 RE//

METARs EXPIRÉS :
  • 222050Z AUTO 02005KT //// // ////// 22/10 Q1022 RE//
  • 222020Z AUTO 01004KT //// // ////// 22/10 Q1022 RE//
  • 221950Z AUTO VRB02KT //// // ////// 22/09 Q1021 RE//
  • 221920Z AUTO 00000KT //// // ////// 22/09 Q1022 RE//
  • 221850Z AUTO 00000KT //// // ////// 24/09 Q1021 RE//

TAF N/A
Pas de NOTAMs connus pour ce terrain.



MET'MAP, la Météo Aéronautique d'un coup d'oeil ! - Copyright ORBIFLY Décembre 2007 - Disclaimer

ORBIFLY MET'MAP TEAM :

Programmation & Développement : Alexandra Zaïnal
Conception & Développement : Baudouin d'Aumeries
Co-Programmation & Développement : Marc-Olivier Méhu
Soutien technique & logistique : Manuel Goepfert

Contact : metmap@orbifly.com




SOURCES & CREDITS :

   NOAA